createdAt,value
2022-11-20T00:00:38.977Z,281.27
2022-11-20T00:01:36.413Z,71.97
2022-11-20T00:02:33.780Z,168.94
2022-11-20T00:03:31.088Z,11.74
2022-11-20T00:04:28.383Z,6.17
2022-11-20T00:05:25.783Z,82.93
2022-11-20T00:06:23.696Z,11.43
2022-11-20T00:07:21.151Z,3.60
2022-11-20T00:08:18.470Z,3.12
2022-11-20T00:09:15.819Z,73.85
2022-11-20T00:10:13.325Z,14.82
2022-11-20T00:11:16.021Z,4.60
2022-11-20T00:12:14.154Z,2.91
2022-11-20T00:13:11.472Z,4.09
2022-11-20T00:14:10.762Z,14.66
2022-11-20T00:15:08.469Z,17.74
2022-11-20T00:16:07.415Z,9.51
2022-11-20T00:17:04.736Z,3.07
2022-11-20T00:18:02.076Z,2.74
2022-11-20T00:18:59.424Z,2.87
2022-11-20T00:19:56.799Z,2.50
2022-11-20T00:20:54.287Z,2.31
2022-11-20T00:21:56.349Z,2.33
2022-11-20T00:22:54.042Z,5.88
2022-11-20T00:23:54.939Z,18.51
2022-11-20T00:24:52.611Z,111.86
2022-11-20T00:25:50.020Z,21.59
2022-11-20T00:26:47.376Z,6.48
2022-11-20T00:27:44.690Z,28.38
2022-11-20T00:28:43.115Z,66.90
2022-11-20T00:29:40.440Z,13.79
2022-11-20T00:30:37.776Z,32.69
2022-11-20T00:31:36.190Z,30.65
2022-11-20T00:32:33.505Z,15.22
2022-11-20T00:33:31.877Z,2.78
2022-11-20T00:34:29.243Z,46.10
2022-11-20T00:35:26.587Z,51.60
2022-11-20T00:36:25.806Z,75.41
2022-11-20T00:37:23.235Z,65.81
2022-11-20T00:38:20.505Z,99.03
2022-11-20T00:39:17.948Z,63.53
2022-11-20T00:40:15.485Z,43.11
2022-11-20T00:41:14.820Z,33.60
2022-11-20T00:42:12.176Z,48.90
2022-11-20T00:43:09.565Z,11.99
2022-11-20T00:44:07.462Z,12.35
2022-11-20T00:45:05.089Z,3.91
2022-11-20T00:46:04.286Z,6.19
2022-11-20T00:47:01.639Z,48.90
2022-11-20T00:47:58.968Z,31.60
2022-11-20T00:48:56.838Z,21.44
2022-11-20T00:49:54.146Z,8.85
2022-11-20T00:50:51.465Z,3.57
2022-11-20T00:51:48.746Z,3.45
2022-11-20T00:52:46.071Z,3.13
2022-11-20T00:53:44.039Z,2.88
2022-11-20T00:54:41.345Z,3.50
2022-11-20T00:55:38.680Z,3.24
2022-11-20T00:56:36.003Z,3.03
2022-11-20T00:57:33.351Z,2.51
2022-11-20T00:58:35.532Z,2.11
2022-11-20T00:59:32.864Z,2.41
2022-11-20T01:00:30.200Z,2.48
2022-11-20T01:01:30.300Z,2.48
2022-11-20T01:02:27.765Z,2.18
2022-11-20T01:03:27.137Z,2.32
2022-11-20T01:04:24.661Z,2.44
2022-11-20T01:05:21.956Z,1.88
2022-11-20T01:06:19.256Z,2.60
2022-11-20T01:07:16.656Z,2.21
2022-11-20T01:08:14.137Z,2.08
2022-11-20T01:09:13.264Z,9.50
2022-11-20T01:10:10.613Z,14.08
2022-11-20T01:11:10.380Z,2.84
2022-11-20T01:12:07.657Z,2.53
2022-11-20T01:13:25.779Z,2.12
2022-11-20T01:14:23.193Z,2.01
2022-11-20T01:15:20.558Z,5.84
2022-11-20T01:16:20.552Z,1.94
2022-11-20T01:17:17.940Z,2.34
2022-11-20T01:18:15.236Z,2.12
2022-11-20T01:19:18.060Z,2.54
2022-11-20T01:20:15.764Z,2.98
2022-11-20T01:21:17.642Z,2.13
2022-11-20T01:22:14.962Z,2.24
2022-11-20T01:23:12.357Z,2.06
2022-11-20T01:24:13.258Z,2.10
2022-11-20T01:25:10.555Z,2.42
2022-11-20T01:26:09.941Z,2.73
2022-11-20T01:27:07.328Z,4.44
2022-11-20T01:28:04.656Z,9.49
2022-11-20T01:29:03.583Z,7.36
2022-11-20T01:30:01.412Z,5.49
2022-11-20T01:30:59.156Z,4.85
2022-11-20T01:31:56.489Z,2.46
2022-11-20T01:32:53.819Z,2.07
2022-11-20T01:33:52.828Z,1.84
2022-11-20T01:34:50.210Z,2.21
2022-11-20T01:35:47.596Z,1.92
2022-11-20T01:36:45.627Z,2.25
2022-11-20T01:37:42.929Z,2.97
2022-11-20T01:38:40.925Z,2.62
2022-11-20T01:39:38.213Z,2.54
2022-11-20T01:40:35.488Z,2.11
2022-11-20T01:41:52.466Z,2.64
2022-11-20T01:43:17.880Z,1.98
2022-11-20T01:44:16.335Z,2.08
2022-11-20T01:45:32.069Z,1.91
2022-11-20T01:46:29.610Z,1.95
2022-11-20T01:47:37.239Z,2.25
2022-11-20T01:48:49.811Z,1.98
2022-11-20T01:49:51.575Z,2.18
2022-11-20T01:50:49.217Z,2.38
2022-11-20T01:51:46.491Z,3.67
2022-11-20T01:52:48.541Z,2.48
2022-11-20T01:53:47.406Z,2.49
2022-11-20T01:54:56.523Z,9.37
2022-11-20T01:55:56.231Z,2.51
2022-11-20T01:56:58.727Z,2.15
2022-11-20T01:57:56.574Z,1.88
2022-11-20T01:58:57.834Z,1.71
2022-11-20T02:00:00.605Z,1.73
2022-11-20T02:00:58.075Z,1.91
2022-11-20T02:01:56.303Z,2.20
2022-11-20T02:02:58.921Z,3.54
2022-11-20T02:03:57.333Z,2.19
2022-11-20T02:04:59.795Z,2.01
2022-11-20T02:06:20.228Z,1.75
2022-11-20T02:07:17.891Z,2.19
2022-11-20T02:08:15.878Z,2.42
2022-11-20T02:09:13.181Z,2.32
2022-11-20T02:10:10.562Z,2.17
2022-11-20T02:11:08.266Z,1.89
2022-11-20T02:12:06.485Z,2.14
2022-11-20T02:13:22.624Z,2.32
2022-11-20T02:14:20.774Z,1.95
2022-11-20T02:15:18.203Z,1.80
2022-11-20T02:16:18.125Z,1.87
2022-11-20T02:17:15.509Z,2.06
2022-11-20T02:18:15.152Z,1.83
2022-11-20T02:19:20.664Z,1.86
2022-11-20T02:20:18.349Z,1.61
2022-11-20T02:21:18.407Z,1.99
2022-11-20T02:22:20.688Z,1.90
2022-11-20T02:23:50.093Z,1.85
2022-11-20T02:24:50.291Z,1.87
2022-11-20T02:25:48.675Z,1.77
2022-11-20T02:26:58.789Z,1.43
2022-11-20T02:27:57.013Z,1.76
2022-11-20T02:28:55.767Z,1.52
2022-11-20T02:29:56.220Z,1.34
2022-11-20T02:30:53.540Z,1.37
2022-11-20T02:31:51.412Z,1.70
2022-11-20T02:32:48.897Z,1.43
2022-11-20T02:33:46.502Z,1.58
2022-11-20T02:34:43.893Z,1.78
2022-11-20T02:35:43.439Z,1.71
2022-11-20T02:36:42.966Z,1.75
2022-11-20T02:37:41.682Z,1.81
2022-11-20T02:38:39.269Z,1.68
2022-11-20T02:39:36.778Z,1.94
2022-11-20T02:40:34.070Z,1.96
2022-11-20T02:41:32.391Z,1.58
2022-11-20T02:42:29.836Z,2.47
2022-11-20T02:43:27.131Z,6.57
2022-11-20T02:44:24.507Z,3.06
2022-11-20T02:45:22.038Z,2.82
2022-11-20T02:46:19.377Z,4.82
2022-11-20T02:47:16.692Z,3.98
2022-11-20T02:48:14.082Z,1.51
2022-11-20T02:49:11.387Z,6.02
2022-11-20T02:50:08.855Z,6.31
2022-11-20T02:51:06.165Z,4.45
2022-11-20T02:52:03.507Z,1.92
2022-11-20T02:53:00.839Z,2.58
2022-11-20T02:53:58.474Z,1.85
2022-11-20T02:54:55.793Z,4.81
2022-11-20T02:55:53.366Z,5.51
2022-11-20T02:56:50.698Z,4.75
2022-11-20T02:57:48.023Z,7.97
2022-11-20T02:58:45.387Z,8.34
2022-11-20T02:59:42.779Z,6.48
2022-11-20T03:00:40.052Z,4.26
2022-11-20T03:01:37.427Z,4.21
2022-11-20T03:02:34.852Z,3.56
2022-11-20T03:03:32.204Z,5.18
2022-11-20T03:04:29.578Z,2.82
2022-11-20T03:05:26.873Z,2.53
2022-11-20T03:06:24.279Z,3.77
2022-11-20T03:07:21.596Z,3.18
2022-11-20T03:08:18.927Z,5.11
2022-11-20T03:09:16.258Z,4.41
2022-11-20T03:10:13.679Z,4.38
2022-11-20T03:11:11.042Z,2.25
2022-11-20T03:12:08.550Z,2.03
2022-11-20T03:13:06.380Z,3.74
2022-11-20T03:14:05.270Z,3.81
2022-11-20T03:15:02.666Z,2.80
2022-11-20T03:16:05.409Z,2.21
2022-11-20T03:17:02.758Z,2.48
2022-11-20T03:18:00.208Z,2.68
2022-11-20T03:18:57.535Z,2.33
2022-11-20T03:19:54.908Z,1.90
2022-11-20T03:20:57.682Z,1.83
2022-11-20T03:21:55.079Z,2.21
2022-11-20T03:22:55.149Z,2.50
2022-11-20T03:23:54.072Z,2.55
2022-11-20T03:24:52.208Z,2.74
2022-11-20T03:25:49.556Z,2.55
2022-11-20T03:26:46.863Z,3.70
2022-11-20T03:27:44.336Z,2.86
2022-11-20T03:28:42.624Z,2.52
2022-11-20T03:29:39.954Z,1.96
2022-11-20T03:30:37.309Z,1.89
2022-11-20T03:31:36.695Z,1.93
2022-11-20T03:32:33.989Z,1.98
2022-11-20T03:33:31.302Z,1.73
2022-11-20T03:34:28.674Z,2.20
2022-11-20T03:35:26.764Z,2.14
2022-11-20T03:36:24.544Z,1.85
2022-11-20T03:37:21.906Z,2.02
2022-11-20T03:38:19.287Z,2.28
2022-11-20T03:39:16.600Z,1.70
2022-11-20T03:40:13.915Z,2.06
2022-11-20T03:41:21.804Z,1.86
2022-11-20T03:42:37.542Z,2.21
2022-11-20T03:43:35.778Z,1.75
2022-11-20T03:44:33.154Z,1.92
2022-11-20T03:45:30.481Z,1.60
2022-11-20T03:46:28.773Z,2.03
2022-11-20T03:47:26.132Z,1.85
2022-11-20T03:48:23.525Z,1.89
2022-11-20T03:49:21.078Z,1.89
2022-11-20T03:50:18.662Z,1.78
2022-11-20T03:51:18.081Z,1.56
2022-11-20T03:52:15.419Z,1.91
2022-11-20T03:53:12.684Z,1.82
2022-11-20T03:54:10.321Z,1.54
2022-11-20T03:55:08.204Z,1.83
2022-11-20T03:56:06.266Z,1.80
2022-11-20T03:57:03.601Z,1.95
2022-11-20T03:58:00.921Z,1.97
2022-11-20T03:58:59.009Z,2.19
2022-11-20T03:59:56.364Z,2.14
2022-11-20T04:00:53.814Z,2.04
2022-11-20T04:01:51.127Z,2.02
2022-11-20T04:02:48.478Z,1.66
2022-11-20T04:03:46.612Z,1.88
2022-11-20T04:04:43.930Z,2.05
2022-11-20T04:05:41.318Z,2.04
2022-11-20T04:06:38.881Z,1.89
2022-11-20T04:07:36.559Z,1.86
2022-11-20T04:08:34.067Z,1.79
2022-11-20T04:09:31.422Z,1.78
2022-11-20T04:10:28.744Z,1.55
2022-11-20T04:11:25.974Z,1.53
2022-11-20T04:12:23.277Z,1.83
2022-11-20T04:13:20.698Z,1.56
2022-11-20T04:14:18.509Z,1.76
2022-11-20T04:15:15.976Z,1.63
2022-11-20T04:16:14.017Z,1.74
2022-11-20T04:17:11.395Z,1.85
2022-11-20T04:18:08.675Z,1.91
2022-11-20T04:19:07.334Z,1.75
2022-11-20T04:20:04.944Z,1.64
2022-11-20T04:21:03.044Z,1.65
2022-11-20T04:22:00.371Z,1.74
2022-11-20T04:22:57.714Z,1.62
2022-11-20T04:23:55.692Z,1.50
2022-11-20T04:24:53.112Z,1.68
2022-11-20T04:25:50.520Z,1.55
2022-11-20T04:26:47.854Z,1.66
2022-11-20T04:27:45.165Z,1.54
2022-11-20T04:28:42.562Z,1.73
2022-11-20T04:29:39.895Z,1.72
2022-11-20T04:30:37.310Z,1.74
2022-11-20T04:31:35.503Z,1.69
2022-11-20T04:32:32.770Z,1.57
2022-11-20T04:33:33.843Z,1.53
2022-11-20T04:34:31.637Z,1.27
2022-11-20T04:35:28.926Z,1.30
2022-11-20T04:36:27.591Z,1.27
2022-11-20T04:37:24.907Z,1.43
2022-11-20T04:38:22.196Z,1.46
2022-11-20T04:39:19.743Z,1.11
2022-11-20T04:40:17.343Z,1.30
2022-11-20T04:41:19.038Z,1.71
2022-11-20T04:42:31.272Z,1.66
2022-11-20T04:43:28.736Z,1.52
2022-11-20T04:44:26.113Z,1.84
2022-11-20T04:45:24.122Z,1.44
2022-11-20T04:46:21.761Z,1.54
2022-11-20T04:47:19.108Z,1.61
2022-11-20T04:48:16.418Z,1.12
2022-11-20T04:49:13.935Z,1.16
2022-11-20T04:50:11.430Z,1.23
2022-11-20T04:51:08.873Z,1.41
2022-11-20T04:52:06.230Z,1.17
2022-11-20T04:53:03.486Z,1.20
2022-11-20T04:54:00.854Z,1.06
2022-11-20T04:54:58.233Z,1.23
2022-11-20T04:56:00.620Z,1.23
2022-11-20T04:56:57.925Z,1.22
2022-11-20T04:57:55.271Z,1.28
2022-11-20T04:58:52.669Z,1.49
2022-11-20T04:59:49.923Z,1.11
2022-11-20T05:00:47.421Z,1.16
2022-11-20T05:01:44.805Z,1.12
2022-11-20T05:02:42.115Z,1.10
2022-11-20T05:03:42.555Z,0.94
2022-11-20T05:04:40.173Z,1.18
2022-11-20T05:05:37.531Z,1.04
2022-11-20T05:06:35.034Z,1.27
2022-11-20T05:07:32.372Z,1.33
2022-11-20T05:08:30.123Z,1.32
2022-11-20T05:09:27.513Z,1.09
2022-11-20T05:10:28.010Z,1.04
2022-11-20T05:11:25.768Z,1.08
2022-11-20T05:12:23.020Z,0.92
2022-11-20T05:13:20.653Z,0.98
2022-11-20T05:14:18.029Z,0.99
2022-11-20T05:15:15.345Z,1.25
2022-11-20T05:16:14.232Z,1.07
2022-11-20T05:17:12.534Z,1.07
2022-11-20T05:18:09.851Z,0.99
2022-11-20T05:19:07.146Z,1.25
2022-11-20T05:20:04.637Z,1.27
2022-11-20T05:21:02.457Z,0.96
2022-11-20T05:21:59.836Z,1.05
2022-11-20T05:22:57.829Z,1.10
2022-11-20T05:23:55.145Z,0.89
2022-11-20T05:24:52.428Z,1.13
2022-11-20T05:25:58.554Z,1.12
2022-11-20T05:26:56.336Z,0.93
2022-11-20T05:27:54.180Z,0.97
2022-11-20T05:28:52.663Z,0.85
2022-11-20T05:29:49.970Z,1.03
2022-11-20T05:30:47.266Z,0.92
2022-11-20T05:31:44.542Z,1.02
2022-11-20T05:32:41.896Z,1.01
2022-11-20T05:33:41.223Z,1.11
2022-11-20T05:34:38.525Z,0.99
2022-11-20T05:35:35.809Z,1.04
2022-11-20T05:36:33.648Z,1.04
2022-11-20T05:37:31.046Z,1.17
2022-11-20T05:38:28.354Z,1.03
2022-11-20T05:39:25.688Z,1.15
2022-11-20T05:40:23.026Z,1.21
2022-11-20T05:41:21.497Z,1.13
2022-11-20T05:42:31.172Z,1.12
2022-11-20T05:43:28.506Z,1.22
2022-11-20T05:44:25.827Z,1.15
2022-11-20T05:45:23.118Z,1.17
2022-11-20T05:46:26.703Z,1.26
2022-11-20T05:47:26.197Z,1.45
2022-11-20T05:48:23.523Z,1.26
2022-11-20T05:49:21.101Z,1.38
2022-11-20T05:50:18.747Z,1.26
2022-11-20T05:51:18.154Z,0.96
2022-11-20T05:52:15.559Z,1.08
2022-11-20T05:53:12.913Z,0.92
2022-11-20T05:54:10.257Z,1.05
2022-11-20T05:55:08.482Z,0.96
2022-11-20T05:56:07.534Z,1.02
2022-11-20T05:57:05.684Z,1.06
2022-11-20T05:58:02.989Z,0.95
2022-11-20T05:59:00.338Z,1.25
2022-11-20T05:59:57.628Z,1.09
2022-11-20T06:00:55.033Z,0.99
2022-11-20T06:01:52.352Z,1.07
2022-11-20T06:02:49.755Z,1.27
2022-11-20T06:03:48.793Z,1.07
2022-11-20T06:04:46.252Z,1.12
2022-11-20T06:05:43.536Z,1.16
2022-11-20T06:06:41.109Z,0.89
2022-11-20T06:07:38.416Z,0.95
2022-11-20T06:08:35.876Z,1.05
2022-11-20T06:09:33.820Z,1.02
2022-11-20T06:10:31.112Z,1.16
2022-11-20T06:11:29.868Z,1.19
2022-11-20T06:12:27.313Z,1.11
2022-11-20T06:13:24.720Z,1.21
2022-11-20T06:14:22.119Z,1.03
2022-11-20T06:15:19.405Z,1.05
2022-11-20T06:16:18.137Z,1.15
2022-11-20T06:17:15.499Z,1.08
2022-11-20T06:18:12.833Z,1.03
2022-11-20T06:19:10.159Z,1.06
2022-11-20T06:20:07.716Z,0.95
2022-11-20T06:21:06.666Z,0.82
2022-11-20T06:22:04.033Z,1.11
2022-11-20T06:23:01.315Z,1.13
2022-11-20T06:23:58.692Z,1.42
2022-11-20T06:24:55.972Z,0.98
2022-11-20T06:25:53.278Z,1.04
2022-11-20T06:26:50.638Z,0.98
2022-11-20T06:27:47.964Z,1.33
2022-11-20T06:28:46.163Z,1.14
2022-11-20T06:29:43.846Z,1.17
2022-11-20T06:30:47.835Z,1.13
2022-11-20T06:31:45.632Z,1.30
2022-11-20T06:32:42.941Z,1.12
2022-11-20T06:33:40.605Z,1.22
2022-11-20T06:34:37.943Z,1.12
2022-11-20T06:35:35.273Z,1.12
2022-11-20T06:36:33.440Z,1.06
2022-11-20T06:37:30.730Z,0.93
2022-11-20T06:38:28.797Z,1.16
2022-11-20T06:39:26.085Z,1.32
2022-11-20T06:40:23.364Z,1.12
2022-11-20T06:41:21.613Z,1.15
2022-11-20T06:42:18.959Z,1.13
2022-11-20T06:43:16.402Z,1.20
2022-11-20T06:44:13.698Z,1.13
2022-11-20T06:45:11.549Z,1.34
2022-11-20T06:46:11.116Z,1.41
2022-11-20T06:47:08.476Z,1.25
2022-11-20T06:48:05.908Z,1.45
2022-11-20T06:49:03.722Z,1.55
2022-11-20T06:50:01.042Z,1.60
2022-11-20T06:50:58.420Z,1.59
2022-11-20T06:51:55.683Z,1.28
2022-11-20T06:52:53.006Z,1.23
2022-11-20T06:53:50.556Z,1.49
2022-11-20T06:54:47.837Z,1.60
2022-11-20T06:55:48.663Z,1.39
2022-11-20T06:56:49.406Z,1.19
2022-11-20T06:57:48.736Z,1.33
2022-11-20T06:58:48.118Z,1.47
2022-11-20T06:59:45.413Z,1.52
2022-11-20T07:00:43.312Z,1.60
2022-11-20T07:01:40.672Z,1.98
2022-11-20T07:02:37.998Z,1.77
2022-11-20T07:03:35.325Z,1.69
2022-11-20T07:04:32.624Z,1.76
2022-11-20T07:05:30.114Z,1.66
2022-11-20T07:06:27.447Z,1.62
2022-11-20T07:07:24.821Z,1.62
2022-11-20T07:08:22.174Z,1.47
2022-11-20T07:09:19.511Z,18.42
2022-11-20T07:10:17.177Z,5.81
2022-11-20T07:11:14.510Z,3.41
2022-11-20T07:12:11.786Z,2.93
2022-11-20T07:13:09.129Z,3.12
2022-11-20T07:14:06.516Z,2.58
2022-11-20T07:15:04.154Z,1.93
2022-11-20T07:16:06.172Z,1.65
2022-11-20T07:17:03.622Z,1.73
2022-11-20T07:18:01.670Z,1.97
2022-11-20T07:18:59.049Z,1.73
2022-11-20T07:19:56.422Z,2.17
2022-11-20T07:20:53.704Z,2.05
2022-11-20T07:21:51.001Z,2.18
2022-11-20T07:22:54.293Z,3.53
2022-11-20T07:23:51.587Z,6.08
2022-11-20T07:24:49.502Z,4.76
2022-11-20T07:25:46.786Z,4.32
2022-11-20T07:26:46.828Z,2.71
2022-11-20T07:27:44.136Z,2.70
2022-11-20T07:28:41.671Z,2.82
2022-11-20T07:29:38.963Z,2.29
2022-11-20T07:30:36.318Z,2.13
2022-11-20T07:31:33.647Z,2.49
2022-11-20T07:32:30.992Z,2.26
2022-11-20T07:33:28.383Z,2.20
2022-11-20T07:34:25.734Z,1.92
2022-11-20T07:35:23.778Z,1.78
2022-11-20T07:36:21.092Z,2.14
2022-11-20T07:37:18.495Z,2.27
2022-11-20T07:38:15.799Z,2.12
2022-11-20T07:39:13.102Z,1.91
2022-11-20T07:40:10.854Z,2.31
2022-11-20T07:41:08.304Z,3.60
2022-11-20T07:42:06.819Z,7.51
2022-11-20T07:43:04.312Z,3.86
2022-11-20T07:44:01.645Z,3.64
2022-11-20T07:44:58.903Z,2.91
2022-11-20T07:45:57.479Z,2.68
2022-11-20T07:46:55.217Z,2.36
2022-11-20T07:47:52.712Z,3.07
2022-11-20T07:48:52.566Z,3.40
2022-11-20T07:49:50.469Z,2.95
2022-11-20T07:50:47.793Z,2.53
2022-11-20T07:51:46.950Z,2.40
2022-11-20T07:52:46.448Z,2.52
2022-11-20T07:53:43.763Z,2.38
2022-11-20T07:54:41.157Z,2.35
2022-11-20T07:55:38.523Z,2.65
2022-11-20T07:56:35.893Z,10.67
2022-11-20T07:57:33.236Z,8.77
2022-11-20T07:58:31.345Z,10.13
2022-11-20T07:59:28.679Z,9.32
2022-11-20T08:00:27.276Z,5.14
2022-11-20T08:01:24.785Z,3.73
2022-11-20T08:02:22.165Z,4.60
2022-11-20T08:03:24.588Z,5.90
2022-11-20T08:04:22.663Z,4.44
2022-11-20T08:05:19.990Z,5.21
2022-11-20T08:06:17.346Z,4.58
2022-11-20T08:07:14.830Z,4.39
2022-11-20T08:08:12.133Z,4.65
2022-11-20T08:09:10.510Z,9.54
2022-11-20T08:10:09.115Z,25.28
2022-11-20T08:11:24.984Z,12.95
2022-11-20T08:12:43.153Z,6.53
2022-11-20T08:13:59.036Z,4.52
2022-11-20T08:14:57.783Z,13.90
2022-11-20T08:15:55.161Z,5.43
2022-11-20T08:16:52.493Z,3.77
2022-11-20T08:18:15.347Z,3.42
2022-11-20T08:19:07.323Z,3.48
2022-11-20T08:20:04.933Z,3.74
2022-11-20T08:21:05.299Z,4.00
2022-11-20T08:22:02.601Z,3.81
2022-11-20T08:23:01.425Z,3.64
2022-11-20T08:23:59.089Z,3.47
2022-11-20T08:24:56.418Z,3.46
2022-11-20T08:25:53.841Z,3.69
2022-11-20T08:26:51.285Z,3.88
2022-11-20T08:27:48.596Z,3.74
2022-11-20T08:28:46.463Z,3.49
2022-11-20T08:29:43.942Z,3.45
2022-11-20T08:30:41.265Z,3.77
2022-11-20T08:31:38.812Z,3.86
2022-11-20T08:32:38.256Z,4.79
2022-11-20T08:33:35.561Z,3.84
2022-11-20T08:34:33.272Z,4.48
2022-11-20T08:35:34.074Z,3.42
2022-11-20T08:36:33.933Z,9.39
2022-11-20T08:37:31.620Z,33.12
2022-11-20T08:38:29.715Z,9.43
2022-11-20T08:39:27.090Z,3.93
2022-11-20T08:40:24.424Z,5.49
2022-11-20T08:41:24.526Z,9.90
2022-11-20T08:42:21.838Z,7.74
2022-11-20T08:43:19.218Z,4.56
2022-11-20T08:44:16.657Z,4.15
2022-11-20T08:45:14.071Z,4.28
2022-11-20T08:46:12.080Z,4.01
2022-11-20T08:47:09.425Z,6.93
2022-11-20T08:48:06.742Z,5.79
2022-11-20T08:49:05.444Z,5.80
2022-11-20T08:50:02.776Z,5.14
2022-11-20T08:51:00.540Z,5.25
2022-11-20T08:51:58.283Z,5.88
2022-11-20T08:52:55.631Z,4.63
2022-11-20T08:53:53.096Z,3.89
2022-11-20T08:54:50.481Z,5.64
2022-11-20T08:55:47.810Z,6.10
2022-11-20T08:56:45.129Z,4.91
2022-11-20T08:57:45.538Z,3.35
2022-11-20T08:59:10.342Z,3.36
2022-11-20T09:00:06.527Z,3.68
2022-11-20T09:01:04.983Z,4.23
2022-11-20T09:02:02.457Z,4.89
2022-11-20T09:03:02.036Z,4.74
2022-11-20T09:04:00.777Z,4.94
2022-11-20T09:04:58.274Z,3.98
2022-11-20T09:06:02.021Z,3.46
2022-11-20T09:07:01.167Z,3.30
2022-11-20T09:07:59.352Z,3.17
2022-11-20T09:08:59.713Z,3.28
2022-11-20T09:10:22.598Z,2.80
2022-11-20T09:11:17.044Z,2.59
2022-11-20T09:12:14.768Z,2.70
2022-11-20T09:13:12.095Z,2.51
2022-11-20T09:14:09.454Z,2.44
2022-11-20T09:15:07.074Z,2.41
2022-11-20T09:16:07.082Z,2.22
2022-11-20T09:17:04.429Z,2.59
2022-11-20T09:18:03.662Z,2.24
2022-11-20T09:19:35.170Z,2.81
2022-11-20T09:20:20.687Z,2.86
2022-11-20T09:21:19.515Z,3.00
2022-11-20T09:22:16.868Z,3.26
2022-11-20T09:23:14.790Z,3.21
2022-11-20T09:24:14.135Z,3.34
2022-11-20T09:25:12.070Z,3.08
2022-11-20T09:26:14.921Z,3.22
2022-11-20T09:27:12.476Z,3.69
2022-11-20T09:28:10.519Z,4.94
2022-11-20T09:29:07.968Z,4.20
2022-11-20T09:30:06.127Z,5.76
2022-11-20T09:31:11.133Z,6.89
2022-11-20T09:32:08.416Z,6.08
2022-11-20T09:33:06.629Z,6.28
2022-11-20T09:34:04.002Z,5.24
2022-11-20T09:36:03.726Z,6.27
2022-11-20T09:37:04.534Z,5.79
2022-11-20T09:38:11.661Z,6.26
2022-11-20T09:39:09.045Z,5.53
2022-11-20T09:40:06.874Z,4.40
2022-11-20T09:41:05.632Z,4.04
2022-11-20T09:42:20.509Z,3.95
2022-11-20T09:43:27.576Z,3.48
2022-11-20T09:44:36.646Z,3.53
2022-11-20T09:45:52.483Z,3.07
2022-11-20T09:47:04.407Z,3.17
2022-11-20T09:48:01.818Z,3.25
2022-11-20T09:49:01.931Z,3.19
2022-11-20T09:50:21.056Z,3.12
2022-11-20T09:51:36.638Z,3.16
2022-11-20T09:52:46.957Z,3.16
2022-11-20T09:53:53.470Z,3.71
2022-11-20T09:54:53.197Z,3.19
2022-11-20T09:55:51.687Z,3.40
2022-11-20T09:56:52.890Z,3.67
2022-11-20T09:57:52.654Z,3.41
2022-11-20T09:58:52.057Z,3.57
2022-11-20T09:59:56.455Z,3.66
2022-11-20T10:00:57.434Z,5.10
2022-11-20T10:01:56.648Z,7.29
2022-11-20T10:03:12.223Z,7.68
2022-11-20T10:04:20.856Z,5.66
2022-11-20T10:05:18.483Z,27.73
2022-11-20T10:06:18.545Z,10.56
2022-11-20T10:07:33.295Z,6.63
2022-11-20T10:08:40.489Z,11.74
2022-11-20T10:09:46.589Z,13.98
2022-11-20T10:10:52.612Z,32.03
2022-11-20T10:12:06.554Z,11.13
2022-11-20T10:13:12.885Z,8.67
2022-11-20T10:14:19.112Z,5.74
2022-11-20T10:15:45.693Z,2.81
2022-11-20T10:16:48.827Z,3.56
2022-11-20T10:18:04.726Z,3.48
2022-11-20T10:19:04.828Z,3.40
2022-11-20T10:20:24.908Z,2.39
2022-11-20T10:21:25.226Z,3.07
2022-11-20T10:22:22.522Z,4.85
2022-11-20T10:23:48.104Z,5.65
2022-11-20T10:24:51.239Z,10.48
2022-11-20T10:26:02.627Z,8.07
2022-11-20T10:27:18.200Z,7.97
2022-11-20T10:28:30.660Z,7.26
2022-11-20T10:29:34.795Z,5.59
2022-11-20T10:30:37.848Z,9.54
2022-11-20T10:31:41.100Z,8.81
2022-11-20T10:32:49.518Z,5.59
2022-11-20T10:34:11.193Z,4.00
2022-11-20T10:35:17.137Z,3.49
2022-11-20T10:36:19.612Z,3.67
2022-11-20T10:37:24.165Z,5.11
2022-11-20T10:38:35.368Z,7.93
2022-11-20T10:39:51.204Z,5.56
2022-11-20T10:41:21.374Z,7.67
2022-11-20T10:42:28.880Z,2.90
2022-11-20T10:43:33.108Z,3.23
2022-11-20T10:44:55.134Z,4.52
2022-11-20T10:46:05.502Z,4.44
2022-11-20T10:47:08.670Z,8.71
2022-11-20T10:48:30.189Z,17.77
2022-11-20T10:49:32.870Z,3.38
2022-11-20T10:50:31.957Z,11.50
2022-11-20T10:51:32.743Z,4.28
2022-11-20T10:52:45.186Z,11.92
2022-11-20T10:53:56.620Z,9.02
2022-11-20T10:55:14.152Z,4.98
2022-11-20T10:56:18.647Z,4.13
2022-11-20T10:57:18.768Z,4.53
2022-11-20T10:58:31.398Z,4.41
2022-11-20T10:59:34.707Z,4.42
2022-11-20T11:00:33.239Z,4.53
2022-11-20T11:01:30.675Z,4.50
2022-11-20T11:02:36.650Z,4.27
2022-11-20T11:03:33.916Z,4.70
2022-11-20T11:04:38.884Z,5.38
2022-11-20T11:05:43.989Z,6.72
2022-11-20T11:06:47.043Z,6.22
2022-11-20T11:07:46.327Z,8.69
2022-11-20T11:08:44.284Z,6.98
2022-11-20T11:09:48.342Z,8.81
2022-11-20T11:10:51.624Z,7.25
2022-11-20T11:11:49.042Z,5.31
2022-11-20T11:12:48.412Z,6.35
2022-11-20T11:13:45.698Z,6.00
2022-11-20T11:14:51.212Z,5.14
2022-11-20T11:15:48.777Z,4.71
2022-11-20T11:17:04.068Z,5.34
2022-11-20T11:18:01.404Z,5.77
2022-11-20T11:19:05.785Z,6.11
2022-11-20T11:20:03.296Z,5.67
2022-11-20T11:21:02.759Z,4.96
2022-11-20T11:22:00.436Z,4.50
2022-11-20T11:22:58.722Z,4.92
2022-11-20T11:24:26.802Z,4.20
2022-11-20T11:25:34.689Z,2.96
2022-11-20T11:26:32.091Z,2.64
2022-11-20T11:27:29.408Z,2.65
2022-11-20T11:28:28.829Z,2.33
2022-11-20T11:29:30.434Z,2.23
2022-11-20T11:30:31.637Z,1.64
2022-11-20T11:31:37.762Z,1.85
2022-11-20T11:32:35.305Z,1.48
2022-11-20T11:33:34.854Z,1.52
2022-11-20T11:34:33.046Z,1.15
2022-11-20T11:35:33.619Z,1.35
2022-11-20T11:36:31.622Z,1.23
2022-11-20T11:37:34.636Z,1.20
2022-11-20T11:38:35.867Z,1.20
2022-11-20T11:39:34.930Z,1.82
2022-11-20T11:40:35.140Z,15.76
2022-11-20T11:41:36.746Z,13.27
2022-11-20T11:42:34.478Z,2.51
2022-11-20T11:43:54.844Z,8.49
2022-11-20T11:45:08.226Z,5.93
2022-11-20T11:46:22.488Z,4.46
2022-11-20T11:47:25.841Z,7.29
2022-11-20T11:48:23.251Z,18.50
2022-11-20T11:49:21.742Z,11.86
2022-11-20T11:50:23.718Z,14.16
2022-11-20T11:51:21.485Z,13.56
2022-11-20T11:52:23.947Z,11.76
2022-11-20T11:53:24.253Z,8.24
2022-11-20T11:54:26.475Z,6.70
2022-11-20T11:55:35.830Z,4.56
2022-11-20T11:56:34.166Z,5.66
2022-11-20T11:57:40.344Z,4.99
2022-11-20T11:58:48.546Z,3.16
2022-11-20T11:59:51.790Z,2.68
2022-11-20T12:00:54.573Z,2.58
2022-11-20T12:01:57.817Z,2.25
2022-11-20T12:03:18.618Z,2.31
2022-11-20T12:04:26.307Z,2.33
2022-11-20T12:05:29.408Z,2.36
2022-11-20T12:06:29.729Z,2.17
2022-11-20T12:08:54.992Z,2.11
2022-11-20T12:09:54.820Z,2.20
2022-11-20T12:10:54.871Z,2.27
2022-11-20T12:12:01.085Z,2.09
2022-11-20T12:13:03.944Z,2.41
2022-11-20T12:14:02.968Z,2.12
2022-11-20T12:15:00.476Z,2.08
2022-11-20T12:15:57.846Z,2.21
2022-11-20T12:16:56.754Z,5.22
2022-11-20T12:17:54.119Z,3.80
2022-11-20T12:18:53.300Z,3.61
2022-11-20T12:19:50.692Z,4.45
2022-11-20T12:21:06.729Z,4.02
2022-11-20T12:22:22.646Z,3.88
2022-11-20T12:23:29.499Z,12.11
2022-11-20T12:24:38.361Z,12.31
2022-11-20T12:25:37.717Z,54.20
2022-11-20T12:26:37.843Z,16.92
2022-11-20T12:27:35.156Z,11.38
2022-11-20T12:28:32.499Z,3.95
2022-11-20T12:29:56.663Z,13.54
2022-11-20T12:31:08.669Z,6.18
2022-11-20T12:32:24.081Z,7.47
2022-11-20T12:33:40.273Z,35.57
2022-11-20T12:34:40.575Z,24.07
2022-11-20T12:35:56.371Z,9.76
2022-11-20T12:37:06.629Z,33.68
2022-11-20T12:38:22.093Z,13.47
2022-11-20T12:39:35.532Z,8.00
2022-11-20T12:40:38.661Z,2.32
2022-11-20T12:42:13.317Z,10.34
2022-11-20T12:43:32.231Z,8.16
2022-11-20T12:45:10.539Z,15.20
2022-11-20T12:46:13.842Z,2.01
2022-11-20T12:47:31.401Z,2.98
2022-11-20T12:48:53.701Z,14.79
2022-11-20T12:50:09.434Z,9.46
2022-11-20T12:51:15.520Z,4.49
2022-11-20T12:52:26.454Z,6.92
2022-11-20T12:53:23.726Z,5.45
2022-11-20T12:54:39.586Z,5.70
2022-11-20T12:55:54.963Z,14.40
2022-11-20T12:57:05.142Z,14.18
2022-11-20T12:58:21.013Z,19.68
2022-11-20T12:59:21.331Z,39.64
2022-11-20T13:00:23.794Z,17.10
2022-11-20T13:01:43.469Z,27.61
2022-11-20T13:02:59.548Z,14.84
2022-11-20T13:04:04.182Z,9.31
2022-11-20T13:05:09.532Z,5.63
2022-11-20T13:06:14.110Z,16.29
2022-11-20T13:07:13.742Z,16.12
2022-11-20T13:08:21.670Z,7.88
2022-11-20T13:09:22.937Z,7.10
2022-11-20T13:10:23.100Z,10.44
2022-11-20T13:11:26.467Z,13.05
2022-11-20T13:12:26.679Z,7.03
2022-11-20T13:13:29.871Z,7.83
2022-11-20T13:14:39.361Z,9.73
2022-11-20T13:15:55.144Z,13.29
2022-11-20T13:17:07.520Z,22.06
2022-11-20T13:18:10.199Z,16.45
2022-11-20T13:19:12.914Z,13.99
2022-11-20T13:20:18.747Z,9.92
2022-11-20T13:21:21.874Z,9.54
2022-11-20T13:22:29.936Z,6.18
2022-11-20T13:23:28.747Z,8.74
2022-11-20T13:24:28.877Z,6.61
2022-11-20T13:25:27.848Z,5.34
2022-11-20T13:26:25.282Z,4.39